createdAt,value
2019-04-23T00:01:23.244Z,2.60
2019-04-23T00:03:45.759Z,3.00
2019-04-23T00:06:21.773Z,2.85
2019-04-23T00:08:48.989Z,2.98
2019-04-23T00:11:21.840Z,2.98
2019-04-23T00:16:21.940Z,2.65
2019-04-23T00:24:23.758Z,2.70
2019-04-23T00:26:36.636Z,3.12
2019-04-23T00:29:08.682Z,2.92
2019-04-23T00:31:44.290Z,3.10
2019-04-23T00:34:01.080Z,3.35
2019-04-23T00:36:44.299Z,2.85
2019-04-23T00:39:18.785Z,3.77
2019-04-23T00:41:36.624Z,2.83
2019-04-23T00:51:32.050Z,2.55
2019-04-23T00:53:56.751Z,3.17
2019-04-23T00:56:40.261Z,3.12
2019-04-23T00:59:02.733Z,3.40
2019-04-23T01:01:41.291Z,2.92
2019-04-23T01:04:10.238Z,2.52
2019-04-23T01:06:29.118Z,3.25
2019-04-23T01:09:02.154Z,3.27
2019-04-23T01:14:01.109Z,3.00
2019-04-23T01:16:33.229Z,2.92
2019-04-23T01:19:24.423Z,3.10
2019-04-23T01:21:35.040Z,2.60
2019-04-23T01:27:39.676Z,3.52
2019-04-23T01:30:05.082Z,3.52
2019-04-23T01:32:32.079Z,3.10
2019-04-23T01:35:09.688Z,2.75
2019-04-23T01:37:31.790Z,2.72
2019-04-23T01:39:57.684Z,3.15
2019-04-23T01:42:35.979Z,2.95
2019-04-23T01:45:11.648Z,2.83
2019-04-23T01:47:31.731Z,3.15
2019-04-23T01:50:08.276Z,3.12
2019-04-23T01:52:38.096Z,3.20
2019-04-23T01:55:10.006Z,3.20
2019-04-23T01:57:42.281Z,3.30
2019-04-23T02:00:11.642Z,3.02
2019-04-23T02:05:09.839Z,3.17
2019-04-23T02:07:45.650Z,3.00
2019-04-23T02:10:17.059Z,3.45
2019-04-23T02:12:43.394Z,3.33
2019-04-23T02:15:12.231Z,3.33
2019-04-23T02:17:36.249Z,3.65
2019-04-23T02:20:14.170Z,3.15
2019-04-23T02:22:51.863Z,3.35
2019-04-23T02:25:24.878Z,3.25
2019-04-23T02:27:58.225Z,3.20
2019-04-23T02:30:49.381Z,3.27
2019-04-23T02:32:59.386Z,3.00
2019-04-23T02:38:00.847Z,3.45
2019-04-23T02:40:26.667Z,3.58
2019-04-23T02:48:08.921Z,3.50
2019-04-23T02:52:56.184Z,3.67
2019-04-23T02:55:31.142Z,4.08
2019-04-23T02:57:50.353Z,3.58
2019-04-23T03:00:27.763Z,3.27
2019-04-23T03:02:59.123Z,3.65
2019-04-23T03:05:31.958Z,3.90
2019-04-23T03:07:54.256Z,4.10
2019-04-23T03:10:23.008Z,4.10
2019-04-23T03:13:07.408Z,3.67
2019-04-23T03:16:08.506Z,3.90
2019-04-23T03:18:35.305Z,3.45
2019-04-23T03:21:05.953Z,3.80
2019-04-23T03:26:25.201Z,3.98
2019-04-23T03:28:57.025Z,3.72
2019-04-23T03:38:51.928Z,5.10
2019-04-23T03:41:21.037Z,4.53
2019-04-23T03:43:41.188Z,4.25
2019-04-23T03:46:24.524Z,4.30
2019-04-23T03:48:47.208Z,4.20
2019-04-23T03:51:20.351Z,4.58
2019-04-23T03:56:24.159Z,4.37
2019-04-23T03:58:46.990Z,4.17
2019-04-23T04:01:22.799Z,4.08
2019-04-23T04:06:23.837Z,3.83
2019-04-23T04:08:58.535Z,4.20
2019-04-23T04:11:25.088Z,4.10
2019-04-23T04:16:21.846Z,3.72
2019-04-23T04:23:51.325Z,4.40
2019-04-23T04:26:22.687Z,4.95
2019-04-23T04:28:54.089Z,4.12
2019-04-23T04:31:26.174Z,4.47
2019-04-23T04:41:25.494Z,3.90
2019-04-23T04:44:05.465Z,4.15
2019-04-23T04:46:30.503Z,4.00
2019-04-23T04:51:27.110Z,3.90
2019-04-23T04:54:01.123Z,4.45
2019-04-23T04:56:40.480Z,4.30
2019-04-23T04:58:59.616Z,4.17
2019-04-23T05:03:43.259Z,5.47
2019-04-23T05:06:22.075Z,4.58
2019-04-23T05:08:58.416Z,4.15
2019-04-23T05:11:26.729Z,4.37
2019-04-23T05:13:55.355Z,4.03
2019-04-23T05:16:23.812Z,4.40
2019-04-23T05:19:08.565Z,4.47
2019-04-23T05:21:35.718Z,4.30
2019-04-23T05:24:00.877Z,4.83
2019-04-23T05:26:20.966Z,4.80
2019-04-23T05:33:59.900Z,4.72
2019-04-23T05:39:07.699Z,4.37
2019-04-23T05:44:05.125Z,4.83
2019-04-23T05:46:42.210Z,4.62
2019-04-23T05:49:02.755Z,5.03
2019-04-23T05:51:44.569Z,4.53
2019-04-23T05:53:58.267Z,4.65
2019-04-23T05:56:27.743Z,4.78
2019-04-23T05:58:58.079Z,5.12
2019-04-23T06:01:49.329Z,5.00
2019-04-23T06:06:37.547Z,4.72
2019-04-23T06:09:03.569Z,5.35
2019-04-23T06:11:39.569Z,5.20
2019-04-23T06:14:06.343Z,5.30
2019-04-23T06:16:35.627Z,5.40
2019-04-23T06:19:07.107Z,6.22
2019-04-23T06:21:52.914Z,4.75
2019-04-23T06:24:09.993Z,5.25
2019-04-23T06:26:40.070Z,5.08
2019-04-23T06:29:05.010Z,7.03
2019-04-23T06:31:41.493Z,5.75
2019-04-23T06:34:13.557Z,4.95
2019-04-23T06:36:34.339Z,4.95
2019-04-23T06:41:37.541Z,5.15
2019-04-23T06:44:14.499Z,5.67
2019-04-23T06:46:44.647Z,4.85
2019-04-23T06:49:11.158Z,5.53
2019-04-23T06:51:46.495Z,5.35
2019-04-23T06:54:12.279Z,5.50
2019-04-23T06:56:44.763Z,5.28
2019-04-23T06:59:12.034Z,5.65
2019-04-23T07:01:51.164Z,5.42
2019-04-23T07:04:15.151Z,5.67
2019-04-23T07:06:46.841Z,5.60
2019-04-23T07:11:40.219Z,5.47
2019-04-23T07:14:02.476Z,5.15
2019-04-23T07:16:38.465Z,5.25
2019-04-23T07:19:18.396Z,5.10
2019-04-23T07:21:41.832Z,6.25
2019-04-23T07:24:16.506Z,5.70
2019-04-23T07:29:18.936Z,6.22
2019-04-23T07:31:50.041Z,6.30
2019-04-23T07:34:15.662Z,5.90
2019-04-23T07:36:41.136Z,9.13
2019-04-23T07:39:23.347Z,6.87
2019-04-23T07:42:16.841Z,9.33
2019-04-23T07:47:51.966Z,6.42
2019-04-23T07:50:26.187Z,5.78
2019-04-23T07:52:57.600Z,7.30
2019-04-23T07:55:31.009Z,5.87
2019-04-23T07:57:57.037Z,6.20
2019-04-23T08:00:22.946Z,5.83
2019-04-23T08:02:43.521Z,5.60
2019-04-23T08:07:49.737Z,6.10
2019-04-23T08:10:16.751Z,5.58
2019-04-23T08:12:47.062Z,6.25
2019-04-23T08:15:23.019Z,6.22
2019-04-23T08:17:45.075Z,6.05
2019-04-23T08:20:23.056Z,6.17
2019-04-23T08:22:49.537Z,6.15
2019-04-23T08:25:19.334Z,5.92
2019-04-23T08:27:49.977Z,5.80
2019-04-23T08:30:19.675Z,5.87
2019-04-23T08:32:54.280Z,6.30
2019-04-23T08:35:19.956Z,6.33
2019-04-23T08:38:02.666Z,6.25
2019-04-23T08:42:58.169Z,8.98
2019-04-23T08:48:29.062Z,6.90
2019-04-23T08:55:53.725Z,8.40
2019-04-23T08:58:22.477Z,7.15
2019-04-23T09:00:55.322Z,6.17
2019-04-23T09:05:54.331Z,6.00
2019-04-23T09:08:21.828Z,6.55
2019-04-23T09:10:58.095Z,6.92
2019-04-23T09:15:51.105Z,6.10
2019-04-23T09:18:22.947Z,7.45
2019-04-23T09:20:41.434Z,5.90
2019-04-23T09:23:28.290Z,6.05
2019-04-23T09:28:27.538Z,5.85
2019-04-23T09:30:57.413Z,6.80
2019-04-23T09:33:36.231Z,6.30
2019-04-23T09:36:18.436Z,6.12
2019-04-23T09:38:46.766Z,6.37
2019-04-23T09:41:27.671Z,6.35
2019-04-23T09:44:14.497Z,7.25
2019-04-23T09:46:40.524Z,6.22
2019-04-23T09:51:35.834Z,6.60
2019-04-23T09:54:09.186Z,8.00
2019-04-23T09:59:15.693Z,6.50
2019-04-23T10:01:29.119Z,5.53
2019-04-23T10:03:57.053Z,5.83
2019-04-23T10:06:20.284Z,5.33
2019-04-23T10:08:49.049Z,5.80
2019-04-23T10:11:13.607Z,5.22
2019-04-23T10:13:42.805Z,5.47
2019-04-23T10:16:15.618Z,5.50
2019-04-23T10:18:41.718Z,5.83
2019-04-23T10:21:11.281Z,5.78
2019-04-23T10:23:41.247Z,5.53
2019-04-23T10:26:10.137Z,5.62
2019-04-23T10:28:47.666Z,5.53
2019-04-23T10:31:16.747Z,5.58
2019-04-23T10:33:46.158Z,5.50
2019-04-23T10:36:19.073Z,6.15
2019-04-23T10:38:54.319Z,5.83
2019-04-23T10:41:16.070Z,5.53
2019-04-23T10:43:48.803Z,5.65
2019-04-23T10:46:43.365Z,5.37
2019-04-23T10:54:28.666Z,24.47
2019-04-23T10:56:59.780Z,20.23
2019-04-23T11:02:29.212Z,7.45
2019-04-23T11:05:00.451Z,6.70
2019-04-23T11:07:27.183Z,7.05
2019-04-23T11:18:07.228Z,5.78
2019-04-23T11:20:27.404Z,5.47
2019-04-23T11:25:26.310Z,5.90
2019-04-23T11:27:53.902Z,4.83
2019-04-23T11:30:27.435Z,5.30
2019-04-23T11:32:54.291Z,6.20
2019-04-23T11:35:31.057Z,5.45
2019-04-23T11:40:23.242Z,5.62
2019-04-23T11:42:59.618Z,5.67
2019-04-23T11:45:50.676Z,5.45
2019-04-23T11:50:27.819Z,5.40
2019-04-23T11:53:01.077Z,5.10
2019-04-23T11:55:32.727Z,5.30
2019-04-23T11:58:02.732Z,5.17
2019-04-23T12:00:33.677Z,5.05
2019-04-23T12:02:51.154Z,4.92
2019-04-23T12:05:41.452Z,5.50
2019-04-23T12:07:57.663Z,5.05
2019-04-23T12:10:43.711Z,5.10
2019-04-23T12:13:10.540Z,4.70
2019-04-23T12:15:32.132Z,5.05
2019-04-23T12:18:05.469Z,5.33
2019-04-23T12:23:18.174Z,5.58
2019-04-23T12:25:31.246Z,5.40
2019-04-23T12:27:50.458Z,5.08
2019-04-23T12:35:36.876Z,4.90
2019-04-23T12:45:35.524Z,4.70
2019-04-23T12:50:50.077Z,4.83
2019-04-23T12:53:23.682Z,5.05
2019-04-23T12:58:15.700Z,4.70
2019-04-23T13:00:38.963Z,4.97
2019-04-23T13:03:16.927Z,5.75
2019-04-23T13:05:53.046Z,4.83
2019-04-23T13:10:47.967Z,5.47
2019-04-23T13:16:02.845Z,5.22
2019-04-23T13:18:19.601Z,4.33
2019-04-23T13:25:57.046Z,4.65
2019-04-23T13:28:35.490Z,4.20
2019-04-23T13:31:08.397Z,4.10
2019-04-23T13:33:42.106Z,4.33
2019-04-23T13:38:38.277Z,4.33
2019-04-23T13:41:09.085Z,3.92
2019-04-23T13:48:27.645Z,4.12
2019-04-23T13:51:07.243Z,4.37
2019-04-23T13:53:39.410Z,4.42
2019-04-23T13:56:15.330Z,4.15
2019-04-23T13:58:34.450Z,4.30
2019-04-23T14:03:40.836Z,4.33
2019-04-23T14:06:18.147Z,4.60
2019-04-23T14:08:47.008Z,4.67
2019-04-23T14:16:22.763Z,4.10
2019-04-23T14:18:58.000Z,4.20
2019-04-23T14:31:17.227Z,5.78
2019-04-23T14:33:58.408Z,3.92
2019-04-23T14:36:19.372Z,4.15
2019-04-23T14:38:49.222Z,3.95
2019-04-23T14:41:23.536Z,4.28
2019-04-23T14:43:56.070Z,4.05
2019-04-23T14:48:56.968Z,3.95
2019-04-23T14:51:32.090Z,4.05
2019-04-23T14:54:03.463Z,3.92
2019-04-23T14:56:29.824Z,4.42
2019-04-23T14:59:07.198Z,4.22
2019-04-23T15:06:41.131Z,4.05
2019-04-23T15:09:07.429Z,4.33
2019-04-23T15:13:53.846Z,4.05
2019-04-23T15:16:33.412Z,4.00
2019-04-23T15:24:06.971Z,4.53
2019-04-23T15:27:23.027Z,4.20
2019-04-23T15:28:43.729Z,4.28
2019-04-23T15:31:33.080Z,4.10
2019-04-23T15:39:11.610Z,4.20
2019-04-23T15:41:45.096Z,4.35
2019-04-23T15:46:40.976Z,4.65
2019-04-23T15:51:35.799Z,3.47
2019-04-23T15:54:14.098Z,4.05
2019-04-23T15:56:41.460Z,4.05
2019-04-23T16:01:34.060Z,4.30
2019-04-23T16:03:39.634Z,4.08
2019-04-23T16:06:10.692Z,4.00
2019-04-23T16:16:47.769Z,3.65
2019-04-23T16:19:13.698Z,4.33
2019-04-23T16:22:01.931Z,4.05
2019-04-23T16:24:17.625Z,4.20
2019-04-23T16:26:51.027Z,3.95
2019-04-23T16:29:32.887Z,4.25
2019-04-23T16:31:50.854Z,4.20
2019-04-23T16:34:23.899Z,4.10
2019-04-23T16:36:54.661Z,4.35
2019-04-23T16:39:16.908Z,4.17
2019-04-23T16:46:56.288Z,5.47
2019-04-23T16:51:48.876Z,5.15
2019-04-23T16:54:26.747Z,4.70
2019-04-23T17:02:03.551Z,5.33
2019-04-23T17:04:27.628Z,3.92
2019-04-23T17:06:53.417Z,4.50
2019-04-23T17:09:34.123Z,4.50
2019-04-23T17:12:03.079Z,4.15
2019-04-23T17:14:23.204Z,4.05
2019-04-23T17:16:49.618Z,3.77
2019-04-23T17:19:29.422Z,4.20
2019-04-23T17:21:59.815Z,4.35
2019-04-23T17:24:23.314Z,4.50
2019-04-23T17:26:57.389Z,4.15
2019-04-23T17:31:49.092Z,4.62
2019-04-23T17:34:32.183Z,4.33
2019-04-23T17:37:13.131Z,4.33
2019-04-23T17:39:55.027Z,4.58
2019-04-23T17:42:30.664Z,4.92
2019-04-23T17:47:37.270Z,4.53
2019-04-23T17:50:05.617Z,5.97
2019-04-23T17:52:34.942Z,5.17
2019-04-23T17:55:10.209Z,5.35
2019-04-23T17:57:39.380Z,6.12
2019-04-23T18:00:17.957Z,4.67
2019-04-23T18:05:09.836Z,4.70
2019-04-23T18:07:44.867Z,4.60
2019-04-23T18:15:04.903Z,4.50
2019-04-23T18:20:12.436Z,4.65
2019-04-23T18:23:00.323Z,4.70
2019-04-23T18:30:17.751Z,5.15
2019-04-23T18:33:44.660Z,5.28
2019-04-23T18:40:57.795Z,5.22
2019-04-23T18:43:13.768Z,6.08
2019-04-23T18:45:46.681Z,6.65
2019-04-23T18:51:03.477Z,5.78
2019-04-23T18:56:06.896Z,6.22
2019-04-23T18:58:47.169Z,5.30
2019-04-23T19:01:20.009Z,5.95
2019-04-23T19:09:22.452Z,5.50
2019-04-23T19:11:58.215Z,5.70
2019-04-23T19:14:35.896Z,5.10
2019-04-23T19:17:09.074Z,6.15
2019-04-23T19:19:29.664Z,5.70
2019-04-23T19:24:28.545Z,7.75
2019-04-23T19:29:30.662Z,6.03
2019-04-23T19:31:56.762Z,6.30
2019-04-23T19:34:35.606Z,6.83
2019-04-23T19:37:01.326Z,6.15
2019-04-23T19:39:33.782Z,7.08
2019-04-23T19:47:23.345Z,6.42
2019-04-23T19:49:32.739Z,5.97
2019-04-23T19:51:59.561Z,6.75
2019-04-23T19:57:19.662Z,6.62
2019-04-23T20:02:09.621Z,6.47
2019-04-23T20:04:42.821Z,7.12
2019-04-23T20:07:22.479Z,7.25
2019-04-23T20:10:03.523Z,6.70
2019-04-23T20:12:05.908Z,6.67
2019-04-23T20:14:44.342Z,6.65
2019-04-23T20:19:44.817Z,6.78
2019-04-23T20:29:50.984Z,7.00
2019-04-23T20:32:07.168Z,6.78
2019-04-23T20:35:00.250Z,7.03
2019-04-23T20:37:47.351Z,7.53
2019-04-23T20:42:40.495Z,6.20
2019-04-23T20:44:58.961Z,6.85
2019-04-23T20:47:22.793Z,6.80
2019-04-23T20:49:48.005Z,7.45
2019-04-23T20:52:20.440Z,7.70
2019-04-23T21:00:01.888Z,7.97
2019-04-23T21:15:37.415Z,8.20
2019-04-23T21:18:09.546Z,7.47
2019-04-23T21:20:30.079Z,7.28
2019-04-23T21:22:58.967Z,7.67
2019-04-23T21:25:25.471Z,6.90
2019-04-23T21:33:11.847Z,7.40
2019-04-23T21:36:02.885Z,7.53
2019-04-23T21:38:39.842Z,7.78
2019-04-23T21:41:11.128Z,8.10
2019-04-23T21:43:58.355Z,8.38
2019-04-23T21:46:15.240Z,8.23
2019-04-23T21:48:55.847Z,8.18
2019-04-23T21:51:09.500Z,8.15
2019-04-23T21:53:42.269Z,7.83
2019-04-23T21:56:09.054Z,8.20
2019-04-23T21:58:49.177Z,7.58
2019-04-23T22:01:23.735Z,8.03
2019-04-23T22:04:06.561Z,8.05
2019-04-23T22:06:25.539Z,9.18
2019-04-23T22:08:56.342Z,7.95
2019-04-23T22:11:49.537Z,7.90
2019-04-23T22:13:57.927Z,8.60
2019-04-23T22:19:56.953Z,8.30
2019-04-23T22:21:25.925Z,8.73
2019-04-23T22:23:58.286Z,10.03
2019-04-23T22:26:25.530Z,8.40
2019-04-23T22:29:00.892Z,8.43
2019-04-23T22:31:23.407Z,8.60
2019-04-23T22:33:53.335Z,10.08
2019-04-23T22:36:14.660Z,9.48
2019-04-23T22:38:49.202Z,8.60
2019-04-23T22:41:18.621Z,9.10
2019-04-23T22:44:05.207Z,9.05
2019-04-23T22:46:22.984Z,8.68
2019-04-23T22:49:14.333Z,9.10
2019-04-23T22:51:41.559Z,8.48
2019-04-23T22:56:35.121Z,9.60
2019-04-23T22:59:21.268Z,8.90
2019-04-23T23:01:50.465Z,8.90
2019-04-23T23:06:49.404Z,8.80
2019-04-23T23:09:23.202Z,8.68
2019-04-23T23:11:43.922Z,8.50
2019-04-23T23:14:16.968Z,8.18
2019-04-23T23:16:39.198Z,8.65
2019-04-23T23:19:16.900Z,8.78
2019-04-23T23:21:51.649Z,8.33
2019-04-23T23:24:07.471Z,8.70
2019-04-23T23:26:42.181Z,8.45
2019-04-23T23:29:05.806Z,8.68
2019-04-23T23:31:43.672Z,8.95
2019-04-23T23:34:06.809Z,8.30
2019-04-23T23:36:47.389Z,9.43
2019-04-23T23:39:18.106Z,8.95
2019-04-23T23:41:42.026Z,8.93
2019-04-23T23:44:28.486Z,8.70
2019-04-23T23:46:54.118Z,8.93
2019-04-23T23:49:13.893Z,8.80
2019-04-23T23:54:18.194Z,8.35
2019-04-23T23:56:39.275Z,9.03
2019-04-23T23:59:12.471Z,8.40
